Aérodrome :
LOGIN :

S'inscrire | Disclaimer

   EN    FR    IT 

 










Légende :    VFR   VFR Marginal   IFR   IFR Intensif   IFR Très Intensif
Visi : 
Plafond : 
>= 8 km
>= 3000ft
5 à 8 km
1000 à 3000 ft
1500m à 5 km
500 à 1000 ft
800 à 1500m
200 à 500 ft
< 800m
< 200 ft
Symboles :   Orages  Brouillard  Fortes neiges  Fortes précipitations  Vent > 20 kt
SIGMETs :   Divers  Orages  Givrage  Turbulence  Onde Orograph.  Cendres Volcan.






- Altitude de l'aérodrome : 116 ft
- Code IATA : ISC


EGHE - Scilly Isles / St Mary's

DERNIER METAR :
  • 131220Z 20024KT 1500 -RA BR SCT008 BKN018 09/07 Q0996

METARs EXPIRÉS :
  • 131120Z 21025KT 9999 VCSH FEW010 SCT030 10/07 Q0998
  • 131050Z 21026KT 9999 FEW010 SCT025 10/06 Q0999
  • 131020Z 22023KT 9999 FEW010 SCT025 10/05 Q1000
  • 130950Z 22012KT 9999 FEW010 SCT025 10/05 Q1002

TAF TAF EGHE
Valide du 13 à 12h jusqu'au 13 à 17h UTC


131104Z 1312/1317 21020KT 9999 SCT025
BECMG 1312/1314 28025KT
TEMPO 1312/1315 6000 SHRA BKN012
PROB40
TEMPO 1312/1315 2000 +SHRA BKN006
PROB40
TEMPO 1315/1317 28030G43KT 4000 +SHRA BKN014CB



MET'MAP, la Météo Aéronautique d'un coup d'oeil ! - Copyright ORBIFLY Décembre 2007 - Disclaimer

ORBIFLY MET'MAP TEAM :

Programmation & Développement : Alexandra Zaïnal
Conception & Développement : Baudouin d'Aumeries
Co-Programmation & Développement : Marc-Olivier Méhu
Soutien technique & logistique : Manuel Goepfert

Contact : metmap@orbifly.com




SOURCES & CREDITS :

   NOAA